createdAt,value
2023-05-14T00:00:36.267Z,101580.22
2023-05-14T00:03:06.354Z,101581.53
2023-05-14T00:05:39.146Z,101583.31
2023-05-14T00:08:09.182Z,101576.41
2023-05-14T00:10:39.073Z,101569.22
2023-05-14T00:13:09.099Z,101573.75
2023-05-14T00:15:39.155Z,101580.19
2023-05-14T00:18:12.457Z,101573.00
2023-05-14T00:20:45.268Z,101579.44
2023-05-14T00:23:15.164Z,101567.06
2023-05-14T00:25:45.643Z,101567.28
2023-05-14T00:28:15.571Z,101560.03
2023-05-14T00:30:45.487Z,101565.53
2023-05-14T00:33:15.458Z,101561.97
2023-05-14T00:35:48.159Z,101565.84
2023-05-14T00:38:19.739Z,101562.31
2023-05-14T00:40:52.127Z,101563.44
2023-05-14T00:43:22.809Z,101560.22
2023-05-14T00:45:54.233Z,101563.75
2023-05-14T00:48:24.837Z,101562.16
2023-05-14T00:50:57.938Z,101549.59
2023-05-14T00:53:28.104Z,101548.00
2023-05-14T00:55:58.026Z,101545.44
2023-05-14T00:58:28.433Z,101544.94
2023-05-14T01:00:58.576Z,101537.41
2023-05-14T01:03:29.123Z,101541.25
2023-05-14T01:06:09.960Z,101541.91
2023-05-14T01:08:49.814Z,101543.06
2023-05-14T01:11:25.592Z,101540.97
2023-05-14T01:14:06.020Z,101542.75
2023-05-14T01:16:37.566Z,101539.06
2023-05-14T01:19:10.834Z,101534.25
2023-05-14T01:21:46.614Z,101530.09
2023-05-14T01:24:16.607Z,101534.59
2023-05-14T01:26:46.523Z,101537.53
2023-05-14T01:29:22.640Z,101534.97
2023-05-14T01:31:55.348Z,101525.78
2023-05-14T01:34:28.792Z,101522.91
2023-05-14T01:37:03.277Z,101521.16
2023-05-14T01:39:34.829Z,101538.84
2023-05-14T01:42:05.632Z,101527.31
2023-05-14T01:44:36.883Z,101530.19
2023-05-14T01:47:06.898Z,101531.16
2023-05-14T01:49:37.560Z,101525.53
2023-05-14T01:52:11.203Z,101529.72
2023-05-14T01:54:41.134Z,101532.31
2023-05-14T01:57:11.165Z,101527.78
2023-05-14T01:59:41.034Z,101524.13
2023-05-14T02:02:10.970Z,101520.41
2023-05-14T02:04:41.092Z,101517.53
2023-05-14T02:07:13.596Z,101511.91
2023-05-14T02:09:43.983Z,101521.88
2023-05-14T02:12:14.120Z,101515.44
2023-05-14T02:14:44.186Z,101517.66
2023-05-14T02:17:16.091Z,101516.69
2023-05-14T02:19:46.519Z,101521.66
2023-05-14T02:22:19.396Z,101515.56
2023-05-14T02:24:50.163Z,101513.47
2023-05-14T02:27:20.089Z,101511.38
2023-05-14T02:29:50.761Z,101514.75
2023-05-14T02:32:20.692Z,101522.75
2023-05-14T02:34:50.820Z,101529.50
2023-05-14T02:37:23.467Z,101523.09
2023-05-14T02:39:53.603Z,101519.03
2023-05-14T02:42:24.581Z,101528.81
2023-05-14T02:44:56.056Z,101523.69
2023-05-14T02:47:25.970Z,101528.78
2023-05-14T02:49:55.951Z,101521.19
2023-05-14T02:52:28.560Z,101522.66
2023-05-14T02:54:58.584Z,101532.44
2023-05-14T02:57:28.872Z,101519.59
2023-05-14T02:59:58.794Z,101530.19
2023-05-14T03:02:29.271Z,101526.66
2023-05-14T03:04:59.720Z,101526.66
2023-05-14T03:07:32.287Z,101522.97
2023-05-14T03:10:02.432Z,101513.97
2023-05-14T03:12:32.352Z,101517.00
2023-05-14T03:15:02.314Z,101513.00
2023-05-14T03:17:32.333Z,101517.97
2023-05-14T03:20:02.389Z,101513.94
2023-05-14T03:22:35.096Z,101514.09
2023-05-14T03:25:05.034Z,101516.63
2023-05-14T03:27:34.987Z,101515.03
2023-05-14T03:30:04.976Z,101524.00
2023-05-14T03:32:35.597Z,101503.63
2023-05-14T03:35:05.602Z,101517.28
2023-05-14T03:37:38.271Z,101514.06
2023-05-14T03:40:09.896Z,101514.06
2023-05-14T03:42:40.084Z,101509.88
2023-05-14T03:45:12.024Z,101506.69
2023-05-14T03:47:42.007Z,101507.50
2023-05-14T03:50:12.671Z,101497.38
2023-05-14T03:52:46.242Z,101506.38
2023-05-14T03:55:16.117Z,101503.63
2023-05-14T03:57:45.984Z,101503.63
2023-05-14T04:00:17.055Z,101503.31
2023-05-14T04:02:47.147Z,101501.72
2023-05-14T04:05:17.100Z,101499.00
2023-05-14T04:07:49.654Z,101498.19
2023-05-14T04:10:19.589Z,101497.06
2023-05-14T04:12:49.485Z,101491.63
2023-05-14T04:15:19.607Z,101492.41
2023-05-14T04:17:49.642Z,101491.63
2023-05-14T04:20:19.772Z,101492.41
2023-05-14T04:22:53.603Z,101480.72
2023-05-14T04:25:24.402Z,101485.69
2023-05-14T04:27:54.372Z,101475.38
2023-05-14T04:30:24.710Z,101488.53
2023-05-14T04:32:54.928Z,101485.94
2023-05-14T04:35:25.263Z,101486.59
2023-05-14T04:37:57.857Z,101483.38
2023-05-14T04:40:27.754Z,101481.75
2023-05-14T04:42:57.721Z,101479.34
2023-05-14T04:45:32.249Z,101476.94
2023-05-14T04:48:04.061Z,101493.28
2023-05-14T04:50:34.072Z,101483.03
2023-05-14T04:53:06.693Z,101479.78
2023-05-14T04:55:36.743Z,101480.72
2023-05-14T04:58:06.848Z,101486.44
2023-05-14T05:00:37.746Z,101484.84
2023-05-14T05:03:07.976Z,101485.16
2023-05-14T05:05:38.265Z,101495.25
2023-05-14T05:08:11.593Z,101487.09
2023-05-14T05:10:41.835Z,101494.94
2023-05-14T05:13:11.891Z,101495.75
2023-05-14T05:15:41.962Z,101493.53
2023-05-14T05:18:12.246Z,101492.41
2023-05-14T05:20:42.481Z,101485.84
2023-05-14T05:23:14.989Z,101489.06
2023-05-14T05:25:45.073Z,101481.38
2023-05-14T05:28:14.985Z,101493.28
2023-05-14T05:30:45.536Z,101490.25
2023-05-14T05:33:16.188Z,101493.44
2023-05-14T05:35:46.383Z,101499.88
2023-05-14T05:38:21.968Z,101496.03
2023-05-14T05:40:54.199Z,101496.22
2023-05-14T05:43:24.085Z,101493.34
2023-05-14T05:45:54.334Z,101490.50
2023-05-14T05:48:24.867Z,101491.47
2023-05-14T05:50:56.579Z,101488.59
2023-05-14T05:53:29.406Z,101486.38
2023-05-14T05:55:59.747Z,101487.31
2023-05-14T05:58:29.697Z,101492.47
2023-05-14T06:01:00.448Z,101494.25
2023-05-14T06:03:30.463Z,101494.72
2023-05-14T06:06:00.465Z,101498.44
2023-05-14T06:08:33.105Z,101500.53
2023-05-14T06:11:03.070Z,101501.19
2023-05-14T06:13:33.918Z,101494.47
2023-05-14T06:16:04.037Z,101495.59
2023-05-14T06:18:34.017Z,101498.03
2023-05-14T06:21:04.016Z,101504.63
2023-05-14T06:23:36.723Z,101500.44
2023-05-14T06:26:06.701Z,101507.88
2023-05-14T06:28:36.667Z,101506.13
2023-05-14T06:31:06.895Z,101494.19
2023-05-14T06:33:36.869Z,101497.63
2023-05-14T06:36:08.499Z,101496.50
2023-05-14T06:38:41.037Z,101500.16
2023-05-14T06:41:10.932Z,101504.44
2023-05-14T06:43:40.820Z,101499.91
2023-05-14T06:46:10.707Z,101498.53
2023-05-14T06:48:40.628Z,101489.25
2023-05-14T06:51:11.151Z,101492.47
2023-05-14T06:53:43.944Z,101487.69
2023-05-14T06:56:14.932Z,101485.19
2023-05-14T06:58:45.199Z,101483.66
2023-05-14T07:01:15.140Z,101481.97
2023-05-14T07:03:45.082Z,101475.69
2023-05-14T07:06:15.006Z,101479.63
2023-05-14T07:08:48.195Z,101477.88
2023-05-14T07:11:18.539Z,101474.06
2023-05-14T07:13:48.383Z,101475.03
2023-05-14T07:16:18.400Z,101486.16
2023-05-14T07:18:48.746Z,101483.22
2023-05-14T07:21:18.788Z,101479.47
2023-05-14T07:23:51.588Z,101478.84
2023-05-14T07:26:21.657Z,101478.00
2023-05-14T07:28:51.619Z,101470.56
2023-05-14T07:31:21.491Z,101473.16
2023-05-14T07:33:51.340Z,101468.78
2023-05-14T07:36:21.379Z,101465.22
2023-05-14T07:38:54.035Z,101473.31
2023-05-14T07:41:24.778Z,101474.47
2023-05-14T07:43:54.712Z,101473.94
2023-05-14T07:46:26.000Z,101473.28
2023-05-14T07:48:56.097Z,101473.16
2023-05-14T07:51:28.530Z,101470.16
2023-05-14T07:54:01.456Z,101475.28
2023-05-14T07:56:31.472Z,101469.25
2023-05-14T07:59:01.332Z,101465.00
2023-05-14T08:04:57.478Z,101468.91
2023-05-14T08:07:28.844Z,101451.59
2023-05-14T08:10:03.890Z,101452.72
2023-05-14T08:12:33.798Z,101452.63
2023-05-14T08:15:03.926Z,101445.41
2023-05-14T08:17:33.907Z,101448.78
2023-05-14T08:20:03.938Z,101446.13
2023-05-14T08:22:33.854Z,101444.31
2023-05-14T08:25:06.739Z,101440.50
2023-05-14T08:27:36.842Z,101439.03
2023-05-14T08:30:07.923Z,101444.25
2023-05-14T08:32:38.867Z,101439.16
2023-05-14T08:35:10.080Z,101445.94
2023-05-14T08:37:40.021Z,101443.19
2023-05-14T08:40:13.592Z,101438.13
2023-05-14T08:42:45.254Z,101438.50
2023-05-14T08:45:21.248Z,101433.78
2023-05-14T08:47:53.200Z,101427.06
2023-05-14T08:50:23.866Z,101434.19
2023-05-14T08:52:54.679Z,101433.81
2023-05-14T08:55:27.583Z,101423.06
2023-05-14T08:57:57.581Z,101426.63
2023-05-14T09:00:27.735Z,101423.41
2023-05-14T09:02:58.980Z,101417.84
2023-05-14T09:05:29.032Z,101417.06
2023-05-14T09:07:59.098Z,101416.59
2023-05-14T09:10:32.710Z,101412.97
2023-05-14T09:13:02.950Z,101408.88
2023-05-14T09:15:34.073Z,101404.78
2023-05-14T09:18:04.144Z,101397.41
2023-05-14T09:20:35.057Z,101405.31
2023-05-14T09:23:05.187Z,101392.94
2023-05-14T09:25:37.947Z,101395.75
2023-05-14T09:28:10.344Z,101396.50
2023-05-14T09:30:43.968Z,101395.63
2023-05-14T09:33:14.024Z,101393.41
2023-05-14T09:35:44.485Z,101391.19
2023-05-14T09:38:14.657Z,101391.94
2023-05-14T09:40:48.899Z,101391.97
2023-05-14T09:43:18.990Z,101389.63
2023-05-14T09:45:48.886Z,101382.44
2023-05-14T09:48:19.024Z,101392.28
2023-05-14T09:50:49.860Z,101377.94
2023-05-14T09:53:20.631Z,101383.50
2023-05-14T09:55:53.403Z,101381.09
2023-05-14T09:58:23.413Z,101377.00
2023-05-14T10:00:54.332Z,101373.72
2023-05-14T10:03:28.207Z,101372.78
2023-05-14T10:06:02.500Z,101368.66
2023-05-14T10:08:37.074Z,101368.41
2023-05-14T10:11:18.020Z,101365.31
2023-05-14T10:13:56.270Z,101366.41
2023-05-14T10:16:32.121Z,101362.59
2023-05-14T10:19:08.884Z,101358.09
2023-05-14T10:21:41.132Z,101365.88
2023-05-14T10:24:13.280Z,101357.06
2023-05-14T10:26:46.857Z,101357.66
2023-05-14T10:29:19.521Z,101365.31
2023-05-14T10:31:51.482Z,101354.56
2023-05-14T10:34:41.773Z,101349.03
2023-05-14T10:37:13.691Z,101341.22
2023-05-14T10:39:44.696Z,101341.19
2023-05-14T10:42:20.221Z,101341.00
2023-05-14T10:44:58.368Z,101345.97
2023-05-14T10:47:29.692Z,101346.72
2023-05-14T10:50:01.351Z,101350.50
2023-05-14T10:52:40.816Z,101342.28
2023-05-14T10:55:11.643Z,101331.94
2023-05-14T10:57:46.725Z,101332.34
2023-05-14T11:00:18.001Z,101336.28
2023-05-14T11:02:48.605Z,101330.16
2023-05-14T11:05:19.865Z,101326.34
2023-05-14T11:07:51.980Z,101322.28
2023-05-14T11:10:24.379Z,101317.88
2023-05-14T11:12:57.301Z,101317.16
2023-05-14T11:15:29.350Z,101307.84
2023-05-14T11:17:59.402Z,101303.47
2023-05-14T11:20:29.406Z,101308.41
2023-05-14T11:22:59.354Z,101312.75
2023-05-14T11:25:29.457Z,101312.47
2023-05-14T11:28:01.992Z,101301.38
2023-05-14T11:30:34.208Z,101306.06
2023-05-14T11:33:04.375Z,101293.00
2023-05-14T11:35:34.351Z,101297.22
2023-05-14T11:38:04.229Z,101295.44
2023-05-14T11:40:34.268Z,101293.06
2023-05-14T11:43:09.400Z,101291.41
2023-05-14T11:45:39.789Z,101288.69
2023-05-14T11:48:18.353Z,101284.41
2023-05-14T11:50:50.302Z,101288.84
2023-05-14T11:53:22.278Z,101278.31
2023-05-14T11:55:52.236Z,101284.97
2023-05-14T11:58:25.023Z,101271.44
2023-05-14T12:00:55.932Z,101279.06
2023-05-14T12:03:26.985Z,101272.09
2023-05-14T12:06:00.290Z,101262.19
2023-05-14T12:08:31.803Z,101258.22
2023-05-14T12:11:03.221Z,101260.06
2023-05-14T12:13:36.523Z,101260.41
2023-05-14T12:16:06.829Z,101256.41
2023-05-14T12:18:37.059Z,101259.19
2023-05-14T12:21:08.575Z,101261.66
2023-05-14T12:23:38.603Z,101263.03
2023-05-14T12:26:09.638Z,101256.34
2023-05-14T12:28:44.717Z,101259.16
2023-05-14T12:31:15.429Z,101264.75
2023-05-14T12:33:45.385Z,101253.22
2023-05-14T12:38:50.442Z,101254.34
2023-05-14T12:41:21.481Z,101256.28
2023-05-14T12:43:54.035Z,101252.25
2023-05-14T12:46:24.317Z,101254.75
2023-05-14T12:48:54.536Z,101245.03
2023-05-14T12:51:24.654Z,101243.16
2023-05-14T12:53:55.194Z,101241.00
2023-05-14T12:56:28.521Z,101238.03
2023-05-14T12:59:03.959Z,101237.88
2023-05-14T13:01:33.992Z,101227.56
2023-05-14T13:04:04.213Z,101225.63
2023-05-14T13:06:34.610Z,101218.78
2023-05-14T13:09:04.590Z,101219.41
2023-05-14T13:11:34.652Z,101214.72
2023-05-14T13:14:07.160Z,101209.63
2023-05-14T13:16:37.156Z,101209.31
2023-05-14T13:19:07.369Z,101208.78
2023-05-14T13:21:37.196Z,101200.31
2023-05-14T13:24:07.473Z,101207.75
2023-05-14T13:26:37.364Z,101211.84
2023-05-14T13:29:09.918Z,101204.81
2023-05-14T13:31:40.082Z,101208.56
2023-05-14T13:34:10.484Z,101204.09
2023-05-14T13:36:41.260Z,101205.97
2023-05-14T13:39:13.023Z,101196.50
2023-05-14T13:41:44.141Z,101197.59
2023-05-14T13:44:16.699Z,101190.53
2023-05-14T13:46:46.739Z,101190.63
2023-05-14T13:49:16.706Z,101196.13
2023-05-14T13:51:46.574Z,101192.00
2023-05-14T13:54:16.503Z,101190.09
2023-05-14T13:56:46.486Z,101186.06
2023-05-14T13:59:19.191Z,101181.94
2023-05-14T14:01:50.301Z,101185.81
2023-05-14T14:04:20.394Z,101182.38
2023-05-14T14:06:50.492Z,101176.50
2023-05-14T14:09:20.472Z,101168.13
2023-05-14T14:11:50.738Z,101169.72
2023-05-14T14:14:23.476Z,101161.91
2023-05-14T14:16:53.548Z,101166.88
2023-05-14T14:19:24.193Z,101168.25
2023-05-14T14:21:54.307Z,101173.75
2023-05-14T14:24:24.930Z,101165.22
2023-05-14T14:26:54.916Z,101168.75
2023-05-14T14:29:28.598Z,101160.97
2023-05-14T14:31:58.982Z,101153.72
2023-05-14T14:34:29.518Z,101152.63
2023-05-14T14:36:59.519Z,101143.81
2023-05-14T14:39:30.720Z,101151.06
2023-05-14T14:42:00.668Z,101155.88
2023-05-14T14:44:33.433Z,101148.53
2023-05-14T14:47:03.593Z,101155.53
2023-05-14T14:49:33.623Z,101141.81
2023-05-14T14:52:03.669Z,101140.03
2023-05-14T14:54:33.639Z,101136.84
2023-05-14T14:57:03.834Z,101139.84
2023-05-14T14:59:38.080Z,101149.00
2023-05-14T15:02:08.508Z,101148.94
2023-05-14T15:04:41.663Z,101143.59
2023-05-14T15:07:11.697Z,101145.78
2023-05-14T15:09:41.615Z,101152.97
2023-05-14T15:12:12.733Z,101139.00
2023-05-14T15:14:45.453Z,101144.50
2023-05-14T15:17:15.512Z,101140.72
2023-05-14T15:19:45.498Z,101137.94
2023-05-14T15:22:15.505Z,101134.44
2023-05-14T15:24:45.468Z,101136.00
2023-05-14T15:27:15.530Z,101140.81
2023-05-14T15:29:48.640Z,101133.88
2023-05-14T15:32:20.056Z,101143.41
2023-05-14T15:34:50.009Z,101137.44
2023-05-14T15:37:19.886Z,101129.94
2023-05-14T15:39:49.993Z,101126.03
2023-05-14T15:42:20.021Z,101130.41
2023-05-14T15:44:52.669Z,101120.84
2023-05-14T15:47:22.647Z,101131.34
2023-05-14T15:49:52.896Z,101125.13
2023-05-14T15:52:22.985Z,101128.53
2023-05-14T15:55:01.207Z,101123.16
2023-05-14T15:57:31.859Z,101110.53
2023-05-14T16:00:08.477Z,101120.88
2023-05-14T16:02:38.468Z,101120.75
2023-05-14T16:05:09.919Z,101119.06
2023-05-14T16:07:40.336Z,101116.91
2023-05-14T16:10:11.477Z,101123.47
2023-05-14T16:12:41.418Z,101132.63
2023-05-14T16:15:16.303Z,101118.81
2023-05-14T16:17:46.325Z,101125.25
2023-05-14T16:20:17.286Z,101128.50
2023-05-14T16:22:47.428Z,101127.75
2023-05-14T16:25:18.878Z,101125.41
2023-05-14T16:27:50.141Z,101135.78
2023-05-14T16:30:23.072Z,101126.75
2023-05-14T16:32:53.678Z,101130.41
2023-05-14T16:35:23.780Z,101119.34
2023-05-14T16:37:54.644Z,101125.34
2023-05-14T16:40:24.813Z,101126.94
2023-05-14T16:42:54.947Z,101120.59
2023-05-14T16:45:32.824Z,101117.84
2023-05-14T16:48:03.302Z,101114.75
2023-05-14T16:50:33.365Z,101125.13
2023-05-14T16:53:03.354Z,101122.00
2023-05-14T16:55:34.264Z,101121.59
2023-05-14T16:58:04.307Z,101127.19
2023-05-14T17:00:36.933Z,101122.88
2023-05-14T17:03:07.491Z,101125.63
2023-05-14T17:05:38.533Z,101128.03
2023-05-14T17:08:09.052Z,101125.69
2023-05-14T17:10:38.976Z,101119.00
2023-05-14T17:13:09.031Z,101130.88
2023-05-14T17:15:44.690Z,101129.72
2023-05-14T17:18:15.065Z,101119.81
2023-05-14T17:20:45.405Z,101132.09
2023-05-14T17:23:15.494Z,101123.00
2023-05-14T17:25:45.569Z,101134.88
2023-05-14T17:28:15.714Z,101130.53
2023-05-14T17:30:48.265Z,101128.16
2023-05-14T17:33:18.346Z,101130.56
2023-05-14T17:35:48.335Z,101129.75
2023-05-14T17:38:18.503Z,101128.19
2023-05-14T17:40:48.448Z,101131.75
2023-05-14T17:43:18.719Z,101134.13
2023-05-14T17:45:54.211Z,101136.09
2023-05-14T17:48:25.458Z,101132.94
2023-05-14T17:50:55.386Z,101134.13
2023-05-14T17:53:25.399Z,101138.09
2023-05-14T17:55:55.532Z,101143.66
2023-05-14T17:58:25.690Z,101141.28
2023-05-14T18:00:58.374Z,101139.69
2023-05-14T18:03:28.496Z,101141.25
2023-05-14T18:05:58.585Z,101131.75
2023-05-14T18:08:28.571Z,101137.31
2023-05-14T18:11:01.034Z,101140.47
2023-05-14T18:13:31.051Z,101142.78
2023-05-14T18:16:04.096Z,101145.16
2023-05-14T18:18:34.181Z,101138.00
2023-05-14T18:21:04.133Z,101140.75
2023-05-14T18:23:34.412Z,101146.72
2023-05-14T18:26:04.475Z,101149.84
2023-05-14T18:28:34.402Z,101148.63
2023-05-14T18:31:07.054Z,101143.47
2023-05-14T18:33:37.081Z,101149.00
2023-05-14T18:36:07.546Z,101149.81
2023-05-14T18:38:37.522Z,101152.94
2023-05-14T18:41:07.472Z,101151.72
2023-05-14T18:43:37.408Z,101156.88
2023-05-14T18:46:10.033Z,101159.19
2023-05-14T18:48:39.984Z,101152.84
2023-05-14T18:51:11.518Z,101153.97
2023-05-14T18:53:41.443Z,101159.84
2023-05-14T18:56:11.565Z,101153.13
2023-05-14T18:58:43.808Z,101151.56
2023-05-14T19:01:16.405Z,101149.63
2023-05-14T19:03:46.397Z,101157.53
2023-05-14T19:06:16.456Z,101154.72
2023-05-14T19:08:46.733Z,101153.88
2023-05-14T19:11:18.275Z,101152.66
2023-05-14T19:13:50.252Z,101151.81
2023-05-14T19:16:33.917Z,101158.09
2023-05-14T19:19:04.168Z,101158.06
2023-05-14T19:21:36.995Z,101154.84
2023-05-14T19:24:07.818Z,101161.09
2023-05-14T19:26:37.792Z,101160.53
2023-05-14T19:29:07.714Z,101163.22
2023-05-14T19:31:40.224Z,101168.28
2023-05-14T19:34:10.286Z,101161.50
2023-05-14T19:36:40.289Z,101159.09
2023-05-14T19:39:11.164Z,101163.78
2023-05-14T19:41:41.273Z,101166.16
2023-05-14T19:44:11.196Z,101157.44
2023-05-14T19:46:44.095Z,101166.50
2023-05-14T19:49:14.053Z,101166.81
2023-05-14T19:51:44.000Z,101170.31
2023-05-14T19:54:13.945Z,101172.97
2023-05-14T19:56:43.938Z,101178.44
2023-05-14T19:59:13.833Z,101176.38
2023-05-14T20:01:46.448Z,101179.41
2023-05-14T20:04:18.326Z,101177.34
2023-05-14T20:06:48.333Z,101175.75
2023-05-14T20:09:18.230Z,101174.09
2023-05-14T20:11:48.478Z,101169.31
2023-05-14T20:14:18.609Z,101181.97
2023-05-14T20:16:54.006Z,101181.50
2023-05-14T20:19:24.448Z,101178.75
2023-05-14T20:21:54.547Z,101173.25
2023-05-14T20:24:24.582Z,101177.19
2023-05-14T20:26:54.867Z,101171.63
2023-05-14T20:29:25.127Z,101176.34
2023-05-14T20:31:57.629Z,101164.53
2023-05-14T20:34:27.750Z,101166.03
2023-05-14T20:36:57.768Z,101167.97
2023-05-14T20:39:28.488Z,101169.13
2023-05-14T20:41:58.499Z,101171.47
2023-05-14T20:44:28.551Z,101160.78
2023-05-14T20:47:01.389Z,101169.78
2023-05-14T20:49:31.551Z,101170.53
2023-05-14T20:52:01.810Z,101172.88
2023-05-14T20:54:31.858Z,101166.53
2023-05-14T20:57:01.971Z,101170.75
2023-05-14T20:59:32.198Z,101163.13
2023-05-14T21:02:04.957Z,101157.53
2023-05-14T21:04:35.871Z,101167.69
2023-05-14T21:07:06.262Z,101158.09
2023-05-14T21:09:36.362Z,101156.84
2023-05-14T21:12:06.446Z,101153.25
2023-05-14T21:14:36.366Z,101157.88
2023-05-14T21:17:09.510Z,101160.94
2023-05-14T21:19:39.408Z,101162.44
2023-05-14T21:22:09.729Z,101164.72
2023-05-14T21:24:39.829Z,101159.88
2023-05-14T21:27:09.853Z,101159.47
2023-05-14T21:29:39.935Z,101151.91
2023-05-14T21:32:12.607Z,101156.59
2023-05-14T21:34:46.282Z,101151.38
2023-05-14T21:37:16.266Z,101154.72
2023-05-14T21:39:46.310Z,101151.41
2023-05-14T21:42:16.405Z,101155.19
2023-05-14T21:44:46.447Z,101159.38
2023-05-14T21:47:20.136Z,101162.13
2023-05-14T21:49:50.046Z,101155.31
2023-05-14T21:52:20.056Z,101149.31
2023-05-14T21:54:50.204Z,101151.59
2023-05-14T21:57:20.234Z,101158.47
2023-05-14T21:59:50.200Z,101155.28
2023-05-14T22:02:23.462Z,101154.78
2023-05-14T22:04:53.533Z,101165.34
2023-05-14T22:07:23.638Z,101155.78
2023-05-14T22:09:53.734Z,101158.97
2023-05-14T22:12:26.466Z,101158.97
2023-05-14T22:14:56.412Z,101163.66
2023-05-14T22:17:29.424Z,101157.69
2023-05-14T22:19:59.402Z,101163.63
2023-05-14T22:22:29.816Z,101154.84
2023-05-14T22:24:59.694Z,101157.09
2023-05-14T22:27:29.734Z,101153.16
2023-05-14T22:30:00.271Z,101157.81
2023-05-14T22:32:33.003Z,101155.06
2023-05-14T22:35:03.507Z,101153.81
2023-05-14T22:37:33.446Z,101154.28
2023-05-14T22:40:05.374Z,101153.03
2023-05-14T22:42:35.328Z,101152.59
2023-05-14T22:45:05.309Z,101151.22
2023-05-14T22:47:38.044Z,101145.25
2023-05-14T22:50:11.817Z,101144.91
2023-05-14T22:52:42.022Z,101136.69
2023-05-14T22:55:12.824Z,101137.22
2023-05-14T22:57:53.812Z,101126.50
2023-05-14T23:00:24.142Z,101120.03
2023-05-14T23:02:57.036Z,101127.25
2023-05-14T23:05:27.240Z,101121.22
2023-05-14T23:07:57.936Z,101128.59
2023-05-14T23:10:27.862Z,101124.97
2023-05-14T23:12:57.770Z,101126.56
2023-05-14T23:15:27.884Z,101120.91
2023-05-14T23:18:00.597Z,101126.22
2023-05-14T23:20:31.030Z,101130.56
2023-05-14T23:23:01.059Z,101122.59
2023-05-14T23:25:30.994Z,101113.47
2023-05-14T23:28:00.995Z,101115.00
2023-05-14T23:30:30.937Z,101118.78
2023-05-14T23:33:03.558Z,101119.22
2023-05-14T23:35:33.895Z,101120.31
2023-05-14T23:38:03.906Z,101116.31
2023-05-14T23:40:34.077Z,101113.84
2023-05-14T23:43:04.130Z,101114.19
2023-05-14T23:45:34.374Z,101108.19
2023-05-14T23:48:07.797Z,101110.75
2023-05-14T23:50:38.418Z,101112.94
2023-05-14T23:53:08.660Z,101107.69
2023-05-14T23:55:38.884Z,101109.03
2023-05-14T23:58:09.162Z,101104.94
